Time;durP1;ratioP1;P1;durP2;ratioP2;P2;SDS_P1;SDS_P2;PMS_P1;PMS_P2;Temp;Humidity;BMP_temperature;BMP_pressure;BME280_temperature;BME280_humidity;BME280_pressure;Samples;Min_cycle;Max_cycle;Signal;HPM_P1;HPM_P2
2023/10/01 00:01:33;;;;;;;3.47;3.25;;;21.00;72.20;;;;;;5095263;28;20038;-78
2023/10/01 00:03:58;;;;;;;3.88;3.58;;;20.90;72.30;;;;;;5091900;28;20048;-78
2023/10/01 00:06:25;;;;;;;4.00;3.58;;;21.00;72.20;;;;;;5095148;28;20055;-78
2023/10/01 00:08:50;;;;;;;3.65;3.35;;;21.00;72.10;;;;;;5094635;28;20048;-78
2023/10/01 00:11:16;;;;;;;3.42;3.13;;;20.90;72.10;;;;;;5101187;28;20421;-78
2023/10/01 00:13:42;;;;;;;3.60;3.30;;;21.00;72.20;;;;;;5100110;28;20485;-78
2023/10/01 00:16:07;;;;;;;3.40;3.20;;;21.00;72.20;;;;;;5103741;27;20568;-78
2023/10/01 00:18:34;;;;;;;3.53;3.28;;;21.00;72.10;;;;;;5089704;28;20051;-78
2023/10/01 00:21:00;;;;;;;3.42;3.22;;;20.90;72.10;;;;;;5094827;28;20493;-78
2023/10/01 00:23:25;;;;;;;3.78;3.47;;;21.00;72.10;;;;;;5095458;28;20099;-78
2023/10/01 00:25:51;;;;;;;3.45;3.25;;;21.00;72.10;;;;;;5096916;28;20040;-78
2023/10/01 00:28:16;;;;;;;3.30;3.10;;;21.00;72.10;;;;;;5098568;28;20055;-78
2023/10/01 00:30:42;;;;;;;3.33;3.13;;;21.00;72.10;;;;;;5090291;28;20118;-78
2023/10/01 00:33:10;;;;;;;4.00;3.70;;;20.90;72.00;;;;;;5096923;28;20045;-78
2023/10/01 00:35:41;;;;;;;3.65;3.38;;;20.90;72.00;;;;;;5079164;28;20093;-78
2023/10/01 00:38:10;;;;;;;3.50;3.22;;;20.90;72.80;;;;;;5097779;28;20044;-78
2023/10/01 00:40:36;;;;;;;3.42;3.22;;;20.90;72.00;;;;;;5099423;28;20139;-78
2023/10/01 00:43:03;;;;;;;3.42;3.13;;;20.90;72.20;;;;;;5086608;28;20755;-77
2023/10/01 00:45:30;;;;;;;3.70;3.40;;;20.90;72.20;;;;;;5092624;28;20081;-77
2023/10/01 00:47:55;;;;;;;3.90;3.60;;;20.90;72.10;;;;;;5090137;28;20055;-78
2023/10/01 00:50:24;;;;;;;3.95;3.65;;;20.90;72.10;;;;;;5086838;28;20048;-78
2023/10/01 00:52:53;;;;;;;3.20;3.00;;;20.90;72.10;;;;;;5109681;27;20128;-78
2023/10/01 00:55:20;;;;;;;3.30;3.10;;;20.90;72.00;;;;;;5090173;28;20055;-78
2023/10/01 00:57:46;;;;;;;3.50;3.20;;;20.90;72.10;;;;;;5094557;28;20514;-78
2023/10/01 01:00:15;;;;;;;3.58;3.28;;;20.90;72.10;;;;;;5099389;28;20060;-78
2023/10/01 01:02:57;;;;;;;4.25;3.85;;;20.90;72.00;;;;;;5076294;28;20032;-78
2023/10/01 01:05:34;;;;;;;3.38;3.17;;;20.90;72.00;;;;;;5092810;27;20115;-78
2023/10/01 01:08:07;;;;;;;3.13;2.92;;;20.90;72.10;;;;;;5091255;28;20044;-78
2023/10/01 01:10:41;;;;;;;3.40;3.20;;;20.90;72.10;;;;;;5086575;28;20044;-78
2023/10/01 01:13:07;;;;;;;3.30;3.00;;;20.90;72.00;;;;;;5085231;28;20389;-77
2023/10/01 01:15:38;;;;;;;3.25;3.00;;;20.90;71.90;;;;;;5089457;28;20023;-77
2023/10/01 01:18:07;;;;;;;3.17;2.88;;;20.90;72.00;;;;;;5085097;28;20041;-78
2023/10/01 01:20:36;;;;;;;3.15;2.92;;;20.90;72.00;;;;;;5087747;28;20102;-78
2023/10/01 01:23:06;;;;;;;3.08;2.88;;;20.90;72.70;;;;;;5086396;28;20039;-78
2023/10/01 01:25:33;;;;;;;3.30;3.10;;;20.90;72.00;;;;;;5095023;28;20039;-77
2023/10/01 01:27:59;;;;;;;3.35;3.05;;;20.90;72.00;;;;;;5085235;28;20036;-78
2023/10/01 01:30:29;;;;;;;3.63;3.33;;;20.90;71.90;;;;;;5088363;28;20043;-78
2023/10/01 01:32:55;;;;;;;3.40;3.20;;;20.90;72.70;;;;;;5070017;28;20050;-78
2023/10/01 01:35:27;;;;;;;3.60;3.30;;;20.90;72.00;;;;;;5095665;28;20465;-78
2023/10/01 01:37:58;;;;;;;3.03;2.83;;;20.90;71.90;;;;;;5079542;28;20048;-78
2023/10/01 01:40:29;;;;;;;3.15;2.95;;;20.90;71.90;;;;;;5089939;28;20067;-77
2023/10/01 01:42:58;;;;;;;3.90;3.60;;;20.90;71.90;;;;;;5080831;28;20128;-77
2023/10/01 01:45:30;;;;;;;3.35;3.15;;;20.90;71.90;;;;;;5082682;28;20039;-77
2023/10/01 01:47:56;;;;;;;3.22;3.03;;;20.90;71.90;;;;;;5079424;28;20455;-78
2023/10/01 01:50:26;;;;;;;3.15;2.95;;;20.90;71.90;;;;;;5086347;28;20024;-78
2023/10/01 01:52:52;;;;;;;3.55;3.35;;;20.80;71.70;;;;;;5089158;28;20071;-78
2023/10/01 01:55:27;;;;;;;3.10;2.90;;;20.80;71.70;;;;;;5094216;28;20517;-78
2023/10/01 01:58:06;;;;;;;2.95;2.75;;;20.90;71.90;;;;;;5084212;28;20064;-78
2023/10/01 02:00:35;;;;;;;3.17;2.90;;;20.80;71.80;;;;;;5083494;28;20043;-78
2023/10/01 02:03:14;;;;;;;3.22;2.97;;;20.90;71.90;;;;;;5080925;28;20402;-78
2023/10/01 02:05:41;;;;;;;3.33;3.13;;;20.90;71.90;;;;;;5092183;28;20071;-78
2023/10/01 02:08:23;;;;;;;2.97;2.78;;;20.90;71.80;;;;;;5093323;28;20029;-78
2023/10/01 02:10:53;;;;;;;2.83;2.63;;;20.80;71.80;;;;;;5089063;28;20052;-78
2023/10/01 02:13:18;;;;;;;3.47;3.28;;;20.80;71.80;;;;;;5089359;28;20855;-78
2023/10/01 02:15:47;;;;;;;3.15;2.95;;;20.80;71.90;;;;;;5081232;28;20123;-78
2023/10/01 02:18:19;;;;;;;3.03;2.83;;;20.80;71.80;;;;;;5090772;28;20496;-78
2023/10/01 02:20:51;;;;;;;3.08;2.88;;;20.80;71.70;;;;;;5080179;28;20059;-78
2023/10/01 02:23:25;;;;;;;2.67;2.47;;;20.80;71.80;;;;;;5070667;28;20399;-78
2023/10/01 02:25:52;;;;;;;3.28;3.08;;;20.80;71.80;;;;;;5073977;28;20383;-78
2023/10/01 02:28:18;;;;;;;3.08;2.88;;;20.80;71.70;;;;;;5072236;28;20068;-78
2023/10/01 02:30:44;;;;;;;2.88;2.67;;;20.80;71.90;;;;;;5087832;28;20418;-78
2023/10/01 02:33:16;;;;;;;3.22;3.03;;;20.90;71.80;;;;;;5087841;28;20058;-78
2023/10/01 02:35:42;;;;;;;3.30;3.10;;;20.80;71.70;;;;;;5079426;28;20052;-78
2023/10/01 02:38:36;;;;;;;3.10;2.90;;;20.80;71.70;;;;;;5086188;28;20040;-78
2023/10/01 02:40:57;;;;;;;3.67;3.38;;;20.80;71.70;;;;;;5089360;28;20040;-78
2023/10/01 02:43:26;;;;;;;3.15;2.95;;;20.80;71.80;;;;;;5080952;28;20042;-78
2023/10/01 02:45:52;;;;;;;3.03;2.80;;;20.80;71.80;;;;;;5091028;28;20039;-78
2023/10/01 02:48:17;;;;;;;2.90;2.70;;;20.80;71.70;;;;;;5088996;28;20051;-78
2023/10/01 02:50:54;;;;;;;2.97;2.67;;;20.80;71.70;;;;;;5096016;28;20400;-77
2023/10/01 02:53:21;;;;;;;2.75;2.55;;;20.80;71.70;;;;;;5080515;28;20168;-78
2023/10/01 02:55:47;;;;;;;3.00;2.80;;;20.80;71.70;;;;;;5092008;28;20483;-78
2023/10/01 02:58:32;;;;;;;3.33;3.10;;;20.80;72.50;;;;;;5089058;28;20573;-78
2023/10/01 03:01:02;;;;;;;3.13;2.92;;;20.80;71.70;;;;;;5074935;28;20754;-78
2023/10/01 03:03:32;;;;;;;3.08;2.88;;;20.80;71.60;;;;;;5061312;28;20198;-78
2023/10/01 03:06:08;;;;;;;3.50;3.30;;;20.80;71.70;;;;;;5090190;28;20044;-78
2023/10/01 03:08:59;;;;;;;2.60;2.40;;;20.80;72.10;;;;;;5084791;28;20097;-78
2023/10/01 03:11:25;;;;;;;3.63;3.15;;;20.80;71.70;;;;;;5083239;28;20045;-78
2023/10/01 03:13:54;;;;;;;3.10;2.90;;;20.80;71.70;;;;;;5093885;28;20103;-78
2023/10/01 03:19:13;;;;;;;3.00;2.80;;;20.80;71.70;;;;;;5090689;28;20695;-78
2023/10/01 03:24:25;;;;;;;3.22;2.78;;;20.80;71.60;;;;;;5091583;28;20544;-78
2023/10/01 03:26:51;;;;;;;3.17;2.92;;;20.80;71.70;;;;;;5069716;28;20501;-78
2023/10/01 03:29:22;;;;;;;3.10;2.90;;;20.80;71.70;;;;;;5094548;28;20043;-78
2023/10/01 03:31:53;;;;;;;2.88;2.67;;;20.80;71.60;;;;;;5099457;28;20048;-78
2023/10/01 03:34:31;;;;;;;3.20;3.00;;;20.80;71.60;;;;;;5089505;28;20054;-78
2023/10/01 03:37:00;;;;;;;2.72;2.53;;;20.80;71.70;;;;;;5085162;28;20105;-78
2023/10/01 03:39:26;;;;;;;2.85;2.65;;;20.80;71.70;;;;;;5087840;28;20040;-78
2023/10/01 03:42:13;;;;;;;2.60;2.40;;;20.70;71.60;;;;;;5090212;28;20044;-78
2023/10/01 03:47:23;;;;;;;3.08;2.88;;;20.80;71.70;;;;;;5087401;28;20867;-78
2023/10/01 03:49:54;;;;;;;2.83;2.63;;;20.80;71.70;;;;;;5082717;28;20078;-78
2023/10/01 03:52:21;;;;;;;3.00;2.75;;;20.80;71.70;;;;;;5092900;28;20131;-78
2023/10/01 03:57:29;;;;;;;2.67;2.53;;;20.70;71.60;;;;;;5090303;28;20036;-78
2023/10/01 03:59:57;;;;;;;3.20;3.00;;;20.70;71.60;;;;;;5067957;28;20062;-78
2023/10/01 04:02:27;;;;;;;3.20;3.00;;;20.70;71.60;;;;;;5083144;28;20066;-78
2023/10/01 04:04:56;;;;;;;3.13;2.92;;;20.70;71.50;;;;;;5091774;28;20108;-78
2023/10/01 04:07:22;;;;;;;2.90;2.70;;;20.80;71.70;;;;;;5093651;28;20050;-78
2023/10/01 04:09:50;;;;;;;3.20;3.00;;;20.70;71.60;;;;;;5080584;28;20048;-78
2023/10/01 04:12:19;;;;;;;3.33;3.03;;;20.70;71.60;;;;;;5090164;28;20051;-78
2023/10/01 04:14:48;;;;;;;2.88;2.67;;;20.70;71.50;;;;;;5084715;28;20064;-78
2023/10/01 04:17:20;;;;;;;3.00;2.80;;;20.70;71.60;;;;;;5087488;28;20048;-78
2023/10/01 04:19:49;;;;;;;3.20;3.00;;;20.70;71.60;;;;;;5083453;28;20040;-78
2023/10/01 04:22:18;;;;;;;3.20;2.90;;;20.80;71.80;;;;;;5085863;28;20095;-78
2023/10/01 04:24:44;;;;;;;2.70;2.50;;;20.70;71.70;;;;;;5091618;28;20062;-78
2023/10/01 04:27:23;;;;;;;2.90;2.70;;;20.70;71.70;;;;;;5092263;28;20089;-78
2023/10/01 04:29:57;;;;;;;2.80;2.60;;;20.70;71.80;;;;;;5080456;28;20036;-78
2023/10/01 04:32:27;;;;;;;2.58;2.38;;;20.70;71.90;;;;;;5090539;28;20067;-77
2023/10/01 04:34:58;;;;;;;2.63;2.42;;;20.70;71.90;;;;;;5091218;28;20119;-77
2023/10/01 04:37:41;;;;;;;2.60;2.40;;;20.70;71.80;;;;;;5102530;27;20039;-77
2023/10/01 04:43:01;;;;;;;2.97;2.78;;;20.70;71.50;;;;;;5080082;28;20043;-78
2023/10/01 04:45:36;;;;;;;3.35;3.00;;;20.70;71.70;;;;;;5081442;28;20065;-78
2023/10/01 04:48:10;;;;;;;3.10;2.90;;;20.70;71.60;;;;;;5087512;28;20048;-78
2023/10/01 04:50:37;;;;;;;2.88;2.67;;;20.70;71.60;;;;;;5090492;28;20114;-78
2023/10/01 04:53:07;;;;;;;2.90;2.70;;;20.70;71.60;;;;;;5082246;28;20051;-78
2023/10/01 04:55:40;;;;;;;2.75;2.55;;;20.70;71.70;;;;;;5092125;28;20041;-78
2023/10/01 04:58:06;;;;;;;2.88;2.67;;;20.70;71.70;;;;;;5087549;28;20131;-77
2023/10/01 05:00:33;;;;;;;2.65;2.50;;;20.70;71.70;;;;;;5091762;28;20047;-78
2023/10/01 05:03:02;;;;;;;2.80;2.60;;;20.70;71.80;;;;;;5081637;28;20032;-78
2023/10/01 05:05:28;;;;;;;2.83;2.35;;;20.70;71.90;;;;;;5094411;28;20044;-78
2023/10/01 05:07:57;;;;;;;2.45;2.25;;;20.70;71.80;;;;;;5077282;28;20033;-78
2023/10/01 05:10:26;;;;;;;3.03;2.83;;;20.70;71.90;;;;;;5091346;28;20048;-78
2023/10/01 05:12:58;;;;;;;2.35;2.25;;;20.70;71.80;;;;;;5085701;28;20528;-78
2023/10/01 05:15:34;;;;;;;3.10;2.80;;;20.70;71.80;;;;;;5081554;28;20082;-78
2023/10/01 05:18:04;;;;;;;2.97;2.75;;;20.70;71.90;;;;;;5082990;28;20040;-78
2023/10/01 05:20:30;;;;;;;2.90;2.70;;;20.70;71.70;;;;;;5084700;28;20047;-78
2023/10/01 05:22:59;;;;;;;2.67;2.47;;;20.70;71.60;;;;;;5095131;28;20454;-78
2023/10/01 05:25:27;;;;;;;2.72;2.58;;;20.70;71.80;;;;;;5093943;28;20052;-78
2023/10/01 05:27:55;;;;;;;3.17;2.72;;;20.70;71.70;;;;;;5084922;28;20036;-78
2023/10/01 05:30:36;;;;;;;2.45;2.25;;;20.70;71.80;;;;;;5095361;28;20056;-78
2023/10/01 05:33:05;;;;;;;3.10;2.90;;;20.70;72.40;;;;;;5086362;28;20641;-78
2023/10/01 05:35:35;;;;;;;2.85;2.65;;;20.70;71.70;;;;;;5079422;28;20065;-77
2023/10/01 05:38:04;;;;;;;2.90;2.70;;;20.70;71.70;;;;;;5085146;28;20044;-78
2023/10/01 05:40:34;;;;;;;2.60;2.40;;;20.70;71.70;;;;;;5092830;28;20566;-78
2023/10/01 05:43:12;;;;;;;3.10;2.90;;;20.70;71.50;;;;;;5082478;28;20046;-78
2023/10/01 05:45:39;;;;;;;2.88;2.63;;;20.70;71.60;;;;;;5079108;28;20124;-78
2023/10/01 05:48:10;;;;;;;2.50;2.30;;;20.60;71.60;;;;;;5073414;28;20048;-78
2023/10/01 05:50:38;;;;;;;3.13;2.92;;;20.70;71.90;;;;;;5090702;28;20056;-78
2023/10/01 05:53:04;;;;;;;2.78;2.53;;;20.70;71.80;;;;;;5084472;28;20048;-78
2023/10/01 05:55:34;;;;;;;2.92;2.72;;;20.60;71.70;;;;;;5089342;28;20039;-78
2023/10/01 05:58:16;;;;;;;2.42;2.22;;;20.70;72.60;;;;;;5083872;28;20047;-78
2023/10/01 06:00:46;;;;;;;2.83;2.63;;;20.60;71.70;;;;;;5087379;28;20036;-78
2023/10/01 06:03:23;;;;;;;3.15;2.95;;;20.60;71.70;;;;;;5089889;28;20446;-78
2023/10/01 06:05:58;;;;;;;2.88;2.67;;;20.60;71.90;;;;;;5084809;28;20123;-78
2023/10/01 06:08:32;;;;;;;2.72;2.53;;;20.60;71.80;;;;;;5084335;28;20039;-77
2023/10/01 06:11:05;;;;;;;;;;;20.70;71.90;;;;;;5061812;28;20040;-78
2023/10/01 06:13:48;;;;;;;2.42;2.33;;;20.60;71.50;;;;;;5094872;28;19919;-77
2023/10/01 06:16:15;;;;;;;2.75;2.55;;;20.70;71.80;;;;;;5083573;28;20041;-77
2023/10/01 06:18:49;;;;;;;3.92;2.72;;;20.60;71.60;;;;;;5084800;28;20182;-77
2023/10/01 06:21:19;;;;;;;3.10;2.80;;;20.60;71.50;;;;;;5074156;28;20067;-78
2023/10/01 06:23:51;;;;;;;3.05;2.85;;;20.60;71.70;;;;;;5087703;28;20410;-78
2023/10/01 06:26:22;;;;;;;2.70;2.50;;;20.60;71.80;;;;;;5075011;28;20040;-78
2023/10/01 06:28:48;;;;;;;2.83;2.63;;;20.70;71.70;;;;;;5090795;28;20435;-78
2023/10/01 06:31:16;;;;;;;2.58;2.38;;;20.60;71.50;;;;;;5075329;28;20063;-78
2023/10/01 06:33:45;;;;;;;2.75;2.55;;;20.70;71.40;;;;;;5080404;28;20564;-77
2023/10/01 06:36:21;;;;;;;2.70;2.50;;;20.60;71.50;;;;;;5089883;28;20429;-78
2023/10/01 06:38:49;;;;;;;2.50;2.30;;;20.70;71.70;;;;;;5078491;28;20123;-78
2023/10/01 06:41:19;;;;;;;3.75;2.83;;;20.70;71.50;;;;;;5088712;28;20032;-78
2023/10/01 06:43:48;;;;;;;2.95;2.75;;;20.70;71.70;;;;;;5079072;28;20055;-78
2023/10/01 06:46:30;;;;;;;3.00;2.80;;;20.60;71.50;;;;;;5076300;28;20054;-78
2023/10/01 06:48:58;;;;;;;2.58;2.38;;;20.60;71.40;;;;;;5107157;28;20142;-78
2023/10/01 06:51:25;;;;;;;2.80;2.60;;;20.70;71.60;;;;;;5092040;28;20134;-78
2023/10/01 06:53:58;;;;;;;2.28;2.08;;;20.60;71.70;;;;;;5088465;28;20048;-77
2023/10/01 06:56:29;;;;;;;2.78;2.58;;;20.60;71.50;;;;;;5095459;28;20040;-77
2023/10/01 07:01:34;;;;;;;2.72;2.53;;;20.60;71.20;;;;;;5094386;28;20044;-78
2023/10/01 07:04:00;;;;;;;3.17;2.85;;;20.70;71.30;;;;;;5090442;28;20052;-77
2023/10/01 07:06:26;;;;;;;2.60;2.40;;;20.60;71.30;;;;;;5076367;28;20172;-78
2023/10/01 07:08:52;;;;;;;2.70;2.50;;;20.70;71.50;;;;;;5093035;28;20122;-78
2023/10/01 07:11:18;;;;;;;2.53;2.35;;;20.60;71.30;;;;;;5095330;28;20214;-78
2023/10/01 07:13:43;;;;;;;2.85;2.65;;;20.70;71.50;;;;;;5097905;28;20679;-78
2023/10/01 07:16:09;;;;;;;2.60;2.40;;;20.60;71.40;;;;;;5087527;28;20051;-77
2023/10/01 07:18:37;;;;;;;2.92;2.72;;;20.60;71.40;;;;;;5081840;28;20434;-77
2023/10/01 07:21:12;;;;;;;2.70;2.50;;;20.60;71.50;;;;;;5092976;28;20122;-77
2023/10/01 07:23:38;;;;;;;2.58;2.38;;;20.70;71.50;;;;;;5093584;28;20040;-77
2023/10/01 07:26:05;;;;;;;3.10;2.90;;;20.60;71.40;;;;;;5096278;28;20051;-77
2023/10/01 07:28:31;;;;;;;2.95;2.70;;;20.70;71.40;;;;;;5094494;28;20539;-78
2023/10/01 07:31:01;;;;;;;2.72;2.53;;;20.60;71.40;;;;;;5090475;28;20043;-77
2023/10/01 07:33:31;;;;;;;2.25;2.13;;;20.60;71.50;;;;;;5093376;28;20082;-78
2023/10/01 07:35:59;;;;;;;2.63;2.42;;;20.70;71.60;;;;;;5096449;28;20085;-78
2023/10/01 07:38:26;;;;;;;2.47;2.38;;;20.60;71.50;;;;;;5100790;28;20036;-77
2023/10/01 07:40:58;;;;;;;2.72;2.53;;;20.60;71.50;;;;;;5092879;28;20043;-77
2023/10/01 07:43:27;;;;;;;2.90;2.70;;;20.60;71.30;;;;;;5090000;28;20051;-77
2023/10/01 07:45:57;;;;;;;2.47;2.30;;;20.70;71.20;;;;;;5094124;28;20486;-77
2023/10/01 07:48:27;;;;;;;2.28;2.17;;;20.70;71.20;;;;;;5081123;28;20051;-78
2023/10/01 07:50:53;;;;;;;2.30;2.10;;;20.60;71.30;;;;;;5093644;28;20035;-78
2023/10/01 07:53:20;;;;;;;2.33;2.13;;;20.70;71.20;;;;;;5101486;28;20040;-78
2023/10/01 07:55:46;;;;;;;2.88;2.67;;;20.70;71.30;;;;;;5099017;28;20039;-78
2023/10/01 07:58:22;;;;;;;2.35;2.15;;;20.60;71.50;;;;;;5110245;27;20126;-78
2023/10/01 08:00:58;;;;;;;2.88;2.67;;;20.70;71.40;;;;;;5094873;28;20120;-78
2023/10/01 08:05:50;;;;;;;2.78;2.58;;;20.70;71.30;;;;;;5103446;27;20029;-78
2023/10/01 08:08:37;;;;;;;2.67;2.47;;;20.70;72.20;;;;;;5093486;28;20413;-78
2023/10/01 08:11:03;;;;;;;2.70;2.50;;;20.70;71.20;;;;;;5090638;28;20050;-78
2023/10/01 08:13:30;;;;;;;2.90;2.70;;;20.70;71.20;;;;;;5080590;28;20044;-77
2023/10/01 08:16:01;;;;;;;3.17;2.72;;;20.70;71.90;;;;;;5089273;28;20048;-78
2023/10/01 08:18:39;;;;;;;3.20;3.00;;;20.70;71.10;;;;;;5096172;28;20397;-78
2023/10/01 08:21:15;;;;;;;2.70;2.50;;;20.80;71.80;;;;;;5094026;28;20651;-78
2023/10/01 08:23:54;;;;;;;2.65;2.45;;;20.80;70.90;;;;;;5086269;28;20052;-78
2023/10/01 08:29:04;;;;;;;2.80;2.60;;;20.80;71.10;;;;;;5088310;28;20413;-77
2023/10/01 08:34:27;;;;;;;2.63;2.42;;;20.80;71.30;;;;;;5090982;28;20208;-78
2023/10/01 08:37:06;;;;;;;2.80;2.60;;;20.80;71.20;;;;;;5084733;28;20032;-78
2023/10/01 08:39:36;;;;;;;3.22;3.03;;;20.80;70.90;;;;;;5082872;28;20043;-77
2023/10/01 08:42:13;;;;;;;2.92;2.72;;;20.90;71.00;;;;;;5093813;28;20523;-78
2023/10/01 08:44:52;;;;;;;2.67;2.55;;;20.90;71.00;;;;;;5090634;28;20041;-78
2023/10/01 08:47:22;;;;;;;2.55;2.38;;;20.90;71.00;;;;;;5090324;28;20044;-78
2023/10/01 08:49:51;;;;;;;2.75;2.60;;;20.90;70.90;;;;;;5092065;28;20115;-78
2023/10/01 08:52:25;;;;;;;3.20;2.95;;;21.00;70.80;;;;;;5093443;28;20070;-78
2023/10/01 08:54:53;;;;;;;;;;;21.00;70.80;;;;;;5080350;28;20076;-77
2023/10/01 08:57:45;;;;;;;2.90;2.70;;;21.00;70.80;;;;;;5076344;28;19916;-78
2023/10/01 09:00:18;;;;;;;2.75;2.55;;;21.00;70.70;;;;;;5087603;28;20109;-78
2023/10/01 09:02:55;;;;;;;2.70;2.50;;;21.00;71.20;;;;;;5083960;28;20039;-78
2023/10/01 09:05:23;;;;;;;3.30;2.60;;;21.00;71.40;;;;;;5100271;27;20036;-77
2023/10/01 09:07:50;;;;;;;3.00;2.80;;;21.00;71.30;;;;;;5096953;28;20111;-77
2023/10/01 09:10:18;;;;;;;2.70;2.50;;;21.00;71.00;;;;;;5095008;28;20493;-78
2023/10/01 09:12:47;;;;;;;3.15;2.95;;;21.00;71.00;;;;;;5089941;28;20497;-78
2023/10/01 09:15:27;;;;;;;2.92;2.72;;;21.00;71.00;;;;;;5090721;28;20040;-78
2023/10/01 09:17:56;;;;;;;2.92;2.72;;;21.00;71.20;;;;;;5094404;28;20505;-77
2023/10/01 09:20:42;;;;;;;2.70;2.50;;;21.00;71.00;;;;;;5093260;28;20078;-77
2023/10/01 09:23:08;;;;;;;2.70;2.50;;;21.00;70.90;;;;;;5090635;28;20055;-77
2023/10/01 09:25:39;;;;;;;2.90;2.65;;;21.00;70.80;;;;;;5091880;28;20051;-78
2023/10/01 09:28:23;;;;;;;3.08;2.88;;;21.00;70.80;;;;;;5089829;28;20044;-78
2023/10/01 09:31:02;;;;;;;2.50;2.37;;;21.00;71.60;;;;;;5087523;28;20043;-78
2023/10/01 09:33:31;;;;;;;2.90;2.70;;;21.10;70.90;;;;;;5084941;28;20082;-77
2023/10/01 09:35:59;;;;;;;2.60;2.50;;;21.00;71.90;;;;;;5084021;28;20044;-78
2023/10/01 09:38:28;;;;;;;3.70;2.60;;;21.10;71.10;;;;;;5085451;28;20561;-77
2023/10/01 09:40:58;;;;;;;2.80;2.60;;;21.10;71.10;;;;;;5084695;28;20527;-77
2023/10/01 09:43:30;;;;;;;2.63;2.47;;;21.10;71.00;;;;;;5081986;28;20035;-78
2023/10/01 09:45:58;;;;;;;2.83;2.63;;;21.10;71.10;;;;;;5093979;28;20126;-77
2023/10/01 09:48:38;;;;;;;3.15;2.95;;;21.10;71.20;;;;;;5071610;28;20028;-77
2023/10/01 09:51:18;;;;;;;2.83;2.63;;;21.10;71.50;;;;;;5090501;28;20139;-77
2023/10/01 09:53:54;;;;;;;3.13;2.92;;;21.10;71.50;;;;;;5085912;28;20056;-77
2023/10/01 09:56:27;;;;;;;3.20;2.97;;;21.10;71.30;;;;;;5074081;28;20040;-77
2023/10/01 09:58:59;;;;;;;2.55;2.35;;;21.10;71.20;;;;;;5079401;28;20028;-78
2023/10/01 10:01:29;;;;;;;2.78;2.58;;;21.10;71.40;;;;;;5087851;28;20054;-77
2023/10/01 10:03:57;;;;;;;2.75;2.55;;;21.20;71.60;;;;;;5053846;28;20071;-77
2023/10/01 10:06:26;;;;;;;2.80;2.60;;;21.20;71.30;;;;;;5095745;28;20043;-77
2023/10/01 10:09:04;;;;;;;2.88;2.70;;;21.20;71.50;;;;;;5089514;28;20037;-78
2023/10/01 10:11:30;;;;;;;2.80;2.60;;;21.20;71.50;;;;;;5079902;28;20525;-78
2023/10/01 10:14:00;;;;;;;2.72;2.53;;;21.20;71.10;;;;;;5077559;28;20043;-78
2023/10/01 10:16:32;;;;;;;2.88;2.67;;;21.20;71.20;;;;;;5096181;28;20036;-78
2023/10/01 10:19:15;;;;;;;2.97;2.75;;;21.20;71.30;;;;;;5092082;28;20032;-78
2023/10/01 10:24:35;;;;;;;2.80;2.60;;;21.30;71.30;;;;;;5090132;28;20052;-78
2023/10/01 10:27:08;;;;;;;2.95;2.75;;;21.30;71.00;;;;;;5081455;28;20044;-78
2023/10/01 10:32:24;;;;;;;2.75;2.55;;;21.30;71.30;;;;;;5075095;28;20060;-78
2023/10/01 10:35:04;;;;;;;2.38;2.20;;;21.40;71.50;;;;;;5083166;28;20046;-77
2023/10/01 10:37:39;;;;;;;2.60;2.40;;;21.40;71.30;;;;;;5084664;28;20040;-78
2023/10/01 10:42:46;;;;;;;2.47;2.38;;;21.40;71.50;;;;;;5085134;28;20037;-78
2023/10/01 10:45:21;;;;;;;2.50;2.30;;;21.40;71.30;;;;;;5086299;28;20127;-78
2023/10/01 10:48:03;;;;;;;2.80;2.60;;;21.40;71.40;;;;;;5083234;28;20584;-78
2023/10/01 10:50:39;;;;;;;2.50;2.40;;;21.40;71.30;;;;;;5102618;28;20514;-78
2023/10/01 10:53:14;;;;;;;2.72;2.55;;;21.40;71.30;;;;;;5087163;28;20109;-78
2023/10/01 10:56:04;;;;;;;2.88;2.67;;;21.40;71.30;;;;;;5093055;28;20043;-78
2023/10/01 10:59:01;;;;;;;2.45;2.35;;;21.40;71.20;;;;;;5081021;28;20052;-78
2023/10/01 11:01:18;;;;;;;2.70;2.50;;;21.50;71.20;;;;;;5085306;28;20092;-78
2023/10/01 11:03:47;;;;;;;2.47;2.28;;;21.40;71.40;;;;;;5085762;28;20055;-78
2023/10/01 11:06:16;;;;;;;2.45;2.22;;;21.50;71.30;;;;;;5087053;28;20045;-78
2023/10/01 11:08:52;;;;;;;2.92;2.60;;;21.50;71.30;;;;;;5093473;28;20145;-78
2023/10/01 11:11:22;;;;;;;2.38;2.20;;;21.50;71.40;;;;;;5085967;28;20055;-78
2023/10/01 11:13:47;;;;;;;2.70;2.50;;;21.50;71.30;;;;;;5095705;28;20509;-77
2023/10/01 11:16:14;;;;;;;2.35;2.15;;;21.50;71.30;;;;;;5072503;28;20028;-78
2023/10/01 11:18:47;;;;;;;2.30;2.20;;;21.50;71.00;;;;;;5090227;28;20111;-78
2023/10/01 11:21:31;;;;;;;2.70;2.50;;;21.50;71.20;;;;;;5090848;28;20071;-78
2023/10/01 11:24:00;;;;;;;2.33;2.22;;;21.50;71.30;;;;;;5084967;28;20147;-77
2023/10/01 11:26:26;;;;;;;2.70;2.50;;;21.50;71.20;;;;;;5078337;28;20048;-77
2023/10/01 11:28:53;;;;;;;2.45;2.33;;;21.50;71.30;;;;;;5095415;28;20123;-78
2023/10/01 11:31:23;;;;;;;1.90;1.80;;;21.50;71.30;;;;;;5090076;28;20051;-78
2023/10/01 11:34:21;;;;;;;2.53;2.33;;;21.60;71.20;;;;;;5093530;28;20047;-78
2023/10/01 11:36:56;;;;;;;2.67;2.47;;;21.60;71.10;;;;;;5088042;28;20047;-78
2023/10/01 11:39:42;;;;;;;2.13;2.03;;;21.60;71.30;;;;;;5086453;28;20061;-78
2023/10/01 11:42:19;;;;;;;2.53;2.33;;;21.60;71.10;;;;;;5092107;28;20040;-77
2023/10/01 11:44:52;;;;;;;2.50;2.30;;;21.60;71.30;;;;;;5083059;28;20036;-78
2023/10/01 11:47:31;;;;;;;2.65;2.45;;;21.60;71.80;;;;;;5086144;28;20043;-78
2023/10/01 11:50:09;;;;;;;2.60;2.40;;;21.60;71.30;;;;;;5091650;28;20044;-78
2023/10/01 11:52:35;;;;;;;2.70;2.50;;;21.60;71.40;;;;;;5098000;28;20075;-78
2023/10/01 11:55:16;;;;;;;2.80;2.60;;;21.60;71.50;;;;;;5094999;28;20040;-77
2023/10/01 11:57:51;;;;;;;1.95;1.85;;;21.60;71.40;;;;;;5080980;28;20047;-82
2023/10/01 12:00:32;;;;;;;2.35;2.25;;;21.60;71.40;;;;;;5083223;28;20044;-82
2023/10/01 12:02:58;;;;;;;2.28;2.08;;;21.60;71.60;;;;;;5092407;28;20036;-82
2023/10/01 12:05:38;;;;;;;2.50;2.30;;;21.60;71.40;;;;;;5091585;28;20040;-82
2023/10/01 12:08:06;;;;;;;2.15;2.05;;;21.60;72.10;;;;;;5081208;28;20041;-83
2023/10/01 12:10:32;;;;;;;2.10;2.00;;;21.60;71.80;;;;;;5114938;27;20047;-82
2023/10/01 12:12:58;;;;;;;3.13;2.35;;;21.60;71.20;;;;;;5090929;28;20517;-82
2023/10/01 12:15:51;;;;;;;2.40;2.20;;;21.60;71.20;;;;;;5090081;28;20102;-82
2023/10/01 12:18:17;;;;;;;1.88;1.77;;;21.60;71.30;;;;;;5083971;28;20039;-82
2023/10/01 12:20:54;;;;;;;2.00;1.90;;;21.60;71.30;;;;;;5083994;28;20091;-82
2023/10/01 12:23:22;;;;;;;2.47;2.28;;;21.70;71.30;;;;;;5092719;28;20044;-82
2023/10/01 12:28:19;;;;;;;2.65;2.45;;;21.70;71.20;;;;;;5103565;27;20036;-82
2023/10/01 12:30:57;;;;;;;2.50;2.30;;;21.60;71.30;;;;;;5076903;28;20044;-82
2023/10/01 12:33:23;;;;;;;2.10;2.00;;;21.60;71.90;;;;;;5084014;28;20588;-81
2023/10/01 12:35:49;;;;;;;1.88;1.77;;;21.70;71.00;;;;;;5081269;28;20112;-82
2023/10/01 12:40:40;;;;;;;2.00;1.90;;;21.60;71.20;;;;;;5095125;28;20382;-82
2023/10/01 12:45:58;;;;;;;2.20;2.00;;;21.70;71.90;;;;;;5072505;28;20089;-82
2023/10/01 12:48:24;;;;;;;1.90;1.80;;;21.70;71.20;;;;;;5065245;28;20483;-82
2023/10/01 12:51:07;;;;;;;2.20;2.10;;;21.60;71.10;;;;;;5091760;28;20370;-82
2023/10/01 12:53:47;;;;;;;1.83;1.73;;;21.60;71.20;;;;;;5085713;28;20565;-82
2023/10/01 12:56:13;;;;;;;2.28;2.08;;;21.60;71.30;;;;;;5095982;28;20032;-82
2023/10/01 12:58:39;;;;;;;1.90;1.80;;;21.70;71.20;;;;;;5094913;28;20046;-82
2023/10/01 13:01:31;;;;;;;2.00;1.90;;;21.70;71.20;;;;;;5085984;28;20043;-82
2023/10/01 13:06:46;;;;;;;2.22;1.95;;;21.70;71.20;;;;;;5072916;28;20051;-82
2023/10/01 13:09:53;;;;;;;2.30;2.20;;;21.70;71.20;;;;;;5096520;28;20032;-81
2023/10/01 13:12:13;;;;;;;1.88;1.77;;;21.70;71.20;;;;;;5083926;28;20043;-82
2023/10/01 13:14:42;;;;;;;2.15;2.05;;;21.70;71.20;;;;;;5081357;28;20055;-82
2023/10/01 13:17:19;;;;;;;1.90;1.80;;;21.70;71.30;;;;;;5086793;28;20055;-82
2023/10/01 13:19:48;;;;;;;1.73;1.63;;;21.70;71.40;;;;;;5097965;28;20077;-82
2023/10/01 13:22:16;;;;;;;2.15;1.95;;;21.70;71.30;;;;;;5064427;28;20135;-82
2023/10/01 13:24:42;;;;;;;2.10;2.00;;;21.70;71.30;;;;;;5057012;28;20032;-82
2023/10/01 13:27:10;;;;;;;2.20;2.00;;;21.70;71.40;;;;;;5064738;28;20540;-82
2023/10/01 13:29:39;;;;;;;2.30;2.15;;;21.70;71.30;;;;;;5063502;28;20074;-82
2023/10/01 13:32:15;;;;;;;2.00;1.90;;;21.70;71.50;;;;;;5067686;28;20784;-82
2023/10/01 13:34:54;;;;;;;1.90;1.80;;;21.70;71.30;;;;;;5049770;28;20056;-82
2023/10/01 13:40:28;;;;;;;2.25;2.15;;;21.70;71.40;;;;;;5065051;28;20135;-82
2023/10/01 14:10:20;;;;;;;1.77;1.67;;;21.70;71.90;;;;;;5063230;28;19923;-82
2023/10/01 14:13:00;;;;;;;1.42;1.33;;;21.70;71.70;;;;;;5069644;28;20522;-82
2023/10/01 14:15:26;;;;;;;1.92;1.83;;;21.70;71.70;;;;;;5064997;28;20105;-82
2023/10/01 14:17:53;;;;;;;1.80;1.70;;;21.70;71.70;;;;;;5049753;28;20340;-82
2023/10/01 14:23:26;;;;;;;1.95;1.85;;;21.70;72.60;;;;;;5092227;28;20032;-82
2023/10/01 14:25:52;;;;;;;1.70;1.60;;;21.70;71.90;;;;;;5076920;28;20602;-82